Cashmere, WA (98815)

5:42 PM PDT on October 20, 2014 (GMT -0700)
East Cashmere | Change Station
CLOSE
Current Station
Personal Weather Station
Location: CASHMERE, WA
Elevation: 922 ft
Nearby Weather Stations

Elev 922 ft 47.52 °N, 120.44 °W | Updated 6 seconds ago

Rain
Rain
55.6 °F
Feels Like 55.6 °F
N
1.8
Wind Variable Wind from NNE
Gusts 3.6 mph

Today
High -- | Low -- °F
--% Chance of Precip.
Yesterday
High -- | Low -- °F
Precip. -- in
7:28 AM 6:04 PM
Waning Crescent, 8% visible
Pressure 29.74 in
Visibility 10.0 miles
Clouds Few 6500 ft
Mostly Cloudy 7500 ft
Overcast 10000 ft
Dew Point 53 °F
Humidity 91%
Rainfall 0.07 in
Snow Depth 0 in , 0 in
UV 0 out of 12
Pollen .40 out of 12
Air Quality Not available.
Flu Activity Sporadic
METAR KEAT 202355Z AUTO 35006KT 10SM -RA FEW065 BKN075 OVC100 14/11 A2974 RMK AO2 RAB37 SLP071 P0000 60002 T01440111 10150 20128 50003

More Conditions Fewer Conditions

Pressure 29.74 in
Visibility 10.0 miles
Clouds Few 6500 ft
Mostly Cloudy 7500 ft
Overcast 10000 ft
Dew Point 53 °F
Humidity 91%
Rainfall 0.07 in
Snow Depth 0 in , 0 in
UV 0 out of 12
Pollen .40 out of 12
Air Quality Not available.
Flu Activity Sporadic
METAR KEAT 202355Z AUTO 35006KT 10SM -RA FEW065 BKN075 OVC100 14/11 A2974 RMK AO2 RAB37 SLP071 P0000 60002 T01440111 10150 20128 50003

More Conditions Fewer Conditions

10-Day Weather Forecast

Almanac

Astronomy

Oct. 20, 2014 Rise Set
Actual Time 7:28 AM PDT 6:04 PM PDT
Civil Twilight 6:56 AM PDT 6:35 PM PDT
Nautical Twilight 6:20 AM PDT 7:11 PM PDT
Astronomical Twilight 5:45 AM PDT 7:47 PM PDT
Moon 4:08 AM PDT (10/20) 4:40 PM PDT (10/20)
Length of Visible Light 11h 39m
Length of Day
10h 36m
Tomorrow will be 3m 15s shorter.
Waning Crescent, 8% of the Moon is Illuminated
Today
Waning Crescent
Oct 23
New
Oct 30
First Quarter
Nov 6
Full
Nov 14
Last Quarter

Today's Extremes

State Highs State Lows

Community

WunderPhotos

Upload Photos

1,763,565 photos uploaded!

Nearby

Snow Depth

Station Depth Elevation
Blewett Pass 0 in 4270 ft
Grouse Camp 0 in 5380 ft
Trough 0 in 5300 ft
Sasse Ridge 0 in 4200 ft
Stevens Pass 0 in 4070 ft

Earthquake Activity

City Distance Mag. Time & Date
No recent earthquake activity has been reported nearby.
Minimum magnitude displayed is 2.5.

Coastal Water Temperatures

Place Temperature
No Stations Reporting

Nearby Weather Stations